Simmonsville, Texas
Current Conditions -  °F | °C
As of 9:35 PM on Saturday 22 Nov 2014 (Local Time) from KOSA Reporting Station
Overcast Overcast  
Wind Chill: 62°   Ceiling: 1200
Heat Index: 62°   Visibility: 5mi
Dew Point: 61°   Wind: 3mph
Humidity: 97%   Direction: 110°ESE
Pressure: 29.86"   Gusts: NA
Location:  32.7353°N, 94.9492°W
Report Text: KOSA 230335Z AUTO 11003KT 5SM OVC012 16/16 A2986 RMK AO1 P0009 T01640159
Loading
Personal Weather Stations






























Interactive Weather Map New forecast layout! Learn more

10-Day Weather Forecast

Advertisements
Track Severe Weather on mobile